Hauptseite
METAR-TAF:

METAR-TAF

Flughäfen :

Flughafen Madrid-Torrejón

Madrid-Torrejón, Spanien

Breite: 40-29N, Länge: 003-27W, Höhe: 607 m

Beobachtung

Neuester Wetterbericht von vor 17 Minuten, um 22:00 UTC
Wind 8 kt aus Nord/Nordost
Temperatur 5°C
Luftfeuchtigkeit 75%
Luftdruck 1026 hPa
Sichtweite 10 km oder mehr
keine Wolken unter 1500 m und keine Kumulonimbus oder Gewitterwolken

METAR: LETO 202200Z 03008KT CAVOK 05/01 Q1026 NOSIG

Zeit: 23:17 (22:17 UTC)

Prognose

Neuester Wetterbericht von vor 5 Stunden und 17 Minuten, um 17:00 UTC
Gültige Prognose vom 20 um 18 UTC bis 21 um 18 UTC
Wind 4 kt aus unterschiedlichen Richtungen
Sichtweite 10 km oder mehr
keine Wolken unter 1500 m und keine Kumulonimbus oder Gewitterwolken
Zeitweise
vom 21 um 00 UTC bis 21 um 10 UTC
Wind 10 kt aus Nordost

TAF: LETO 201700Z 2018/2118 VRB04KT CAVOK TX18/2116Z TN01/2106Z TEMPO 2100/2110 04010KT

Wetterbeobachtungen und Prognosen von mehr als 4000 Flughäfen (METAR und TAF Bericht).

Die verfügbaren Stationen werden durch gelbe und rote Markierungen auf der Karte dargestellt.

Führen Sie die Maus auf sie, um den Namen der Station zu sehen.

Darauf klicken, um die Beobachtung von Wetterbeobachtungen und Prognosen zu sehen.

Um die Karte zu ändern : klicken Sie auf den grünen Tasten mit einem schwarzen Kreuz Zum Vergrößern, auf den grünen Button mit einem Gedankenstrich zu verkleinern, oder auf die grünen Pfeile für benachbarte Karten.


METAR-TAF: